Eglin Air Force Base
KVPS : rendu visible

Aérodrome :











RETROUVEZ-NOUS SUR...

 
LOGIN :

S'inscrire | Disclaimer

   EN    FR    IT 

 









Légende :    VFR   VFR Marginal   IFR   IFR Intensif   IFR Très Intensif
Visi : 
Plafond : 
>= 8 km
>= 3000ft
5 à 8 km
1000 à 3000 ft
1500m à 5 km
500 à 1000 ft
800 à 1500m
200 à 500 ft
< 800m
< 200 ft
Symboles :   Orages  Brouillard  Fortes neiges  Fortes précipitations  Vent > 20 kt






- Altitude de l'aérodrome : 87 ft
- Code IATA : VPS


KVPS - Eglin Air Force Base

DERNIER METAR :
  • 031756Z 20009KT 10SM FEW040 FEW130 SCT200 33/23 A2993 RMK AO2A SLP141 T03260229 10329 20251 58009

METARs EXPIRÉS :
  • 031658Z 19007KT 10SM FEW038 FEW130 BKN190 32/24 A2995 RMK AO2A SLP148 T03230235
  • 031558Z 13004KT 10SM FEW032 FEW200 31/23 A2995 RMK AO2A SLP148 T03140229

TAF TAF KVPS
Valide du 03 à 17h jusqu'au 04 à 23h UTC


031700Z 0317/0423 17009KT 9999 FEW040 FEW150 QNH2995INS
BECMG 0318/0319 20012KT 9999 FEW040 FEW150 QNH2990INS WND 27008KT AFT 0323
BECMG 0411/0412 27009KT 9999 SCT050 SCT140 QNH2991INS WND 22012KT AFT 0419
BECMG 0422/0423 28008KT 9999 SCT040 QNH2993INS TX34/0320Z TN24/0411Z
FIR KZJX / Amérique du Nord



MET'MAP, la Météo Aéronautique d'un coup d'oeil ! - Copyright ORBIFLY Décembre 2007 - Disclaimer

ORBIFLY MET'MAP TEAM :

Programmation & Développement : Alexandra Zaïnal
Sur une idée originale de : Baudouin d'Aumeries
Assistance à la programmation : Marc-Olivier Méhu
Soutien technique & logistique : Manuel Goepfert

Contact : metmap@orbifly.com




SOURCES & CREDITS :

   NOAA       Earth
Advisory